Time;durP1;ratioP1;P1;durP2;ratioP2;P2;SDS_P1;SDS_P2;PMS_P1;PMS_P2;Temp;Humidity;BMP_temperature;BMP_pressure;BME280_temperature;BME280_humidity;BME280_pressure;Samples;Min_cycle;Max_cycle;Signal;HPM_P1;HPM_P2
2023/06/01 00:01:05;;;;;;;12.70;10.20;;;;;;;11.35;100.00;100887.31;5036745;28;20267;-78
2023/06/01 00:03:31;;;;;;;10.43;8.90;;;;;;;11.55;100.00;100901.81;5039986;28;20233;-78
2023/06/01 00:06:00;;;;;;;10.27;8.97;;;;;;;11.52;100.00;100916.66;5041588;28;20208;-78
2023/06/01 00:08:26;;;;;;;10.13;9.07;;;;;;;11.50;100.00;100938.50;5039841;28;20368;-78
2023/06/01 00:10:53;;;;;;;10.20;9.23;;;;;;;11.68;100.00;100947.81;5040395;28;20210;-79
2023/06/01 00:13:20;;;;;;;15.23;9.50;;;;;;;11.77;99.50;100967.72;5041804;28;20328;-78
2023/06/01 00:15:46;;;;;;;10.87;9.87;;;;;;;11.65;98.74;100984.47;5041608;28;20252;-79
2023/06/01 00:18:15;;;;;;;10.13;9.13;;;;;;;11.75;99.38;100983.44;5040731;28;20236;-78
2023/06/01 00:20:41;;;;;;;13.77;9.33;;;;;;;11.68;99.00;100993.13;5039923;28;20266;-79
2023/06/01 00:23:10;;;;;;;9.20;8.30;;;;;;;11.42;99.17;100992.66;5039547;28;20211;-79
2023/06/01 00:25:36;;;;;;;11.87;8.67;;;;;;;11.47;99.68;100985.59;5038358;28;20236;-78
2023/06/01 00:28:03;;;;;;;11.00;8.50;;;;;;;11.72;98.52;100999.19;5040470;28;20221;-78
2023/06/01 00:30:29;;;;;;;12.30;7.93;;;;;;;11.67;97.23;101020.19;5039000;28;20225;-79
2023/06/01 00:32:55;;;;;;;10.57;8.47;;;;;;;11.48;96.86;101032.63;5040682;28;20218;-79
2023/06/01 00:35:22;;;;;;;11.73;8.10;;;;;;;11.58;96.51;101051.69;5040931;28;20207;-79
2023/06/01 00:37:48;;;;;;;9.57;7.90;;;;;;;11.63;96.37;101049.84;5040405;28;20230;-78
2023/06/01 00:40:16;;;;;;;12.47;7.50;;;;;;;11.80;95.45;101059.25;5038963;28;20203;-78
2023/06/01 00:42:42;;;;;;;9.67;8.27;;;;;;;11.94;94.74;101072.16;5041235;28;20235;-78
2023/06/01 00:45:09;;;;;;;8.27;7.47;;;;;;;11.94;92.99;101107.03;5040513;28;20622;-79
2023/06/01 00:47:42;;;;;;;9.57;7.80;;;;;;;11.35;94.36;101112.09;5039704;28;20226;-79
2023/06/01 00:50:10;;;;;;;9.03;8.13;;;;;;;11.33;95.10;101091.19;5039820;28;20209;-79
2023/06/01 00:52:38;;;;;;;10.17;8.67;;;;;;;11.21;95.45;101072.19;5047781;28;20206;-78
2023/06/01 00:55:05;;;;;;;8.60;7.80;;;;;;;11.35;95.38;101078.09;5039837;28;20211;-79
2023/06/01 00:57:33;;;;;;;10.83;9.73;;;;;;;11.30;94.91;101070.31;5040353;28;20276;-78
2023/06/01 00:59:59;;;;;;;10.37;9.33;;;;;;;11.40;95.11;101078.06;5040136;28;20233;-79
2023/06/01 01:02:26;;;;;;;10.50;9.60;;;;;;;11.24;94.57;101085.22;5038755;28;20208;-79
2023/06/01 01:04:52;;;;;;;10.43;9.33;;;;;;;11.41;94.00;101085.00;5040441;28;20252;-78
2023/06/01 01:07:26;;;;;;;9.57;8.57;;;;;;;11.42;93.76;101092.84;5039025;28;20226;-78
2023/06/01 01:09:59;;;;;;;10.87;7.27;;;;;;;11.61;92.89;101106.53;5039475;28;20716;-79
2023/06/01 01:12:32;;;;;;;8.93;7.37;;;;;;;11.87;91.92;101123.66;5039570;28;20203;-79
2023/06/01 01:15:08;;;;;;;13.20;7.83;;;;;;;11.65;91.67;101151.81;5041773;28;20207;-78
2023/06/01 01:17:38;;;;;;;9.30;6.70;;;;;;;11.52;92.34;101138.91;5040950;28;20253;-78
2023/06/01 01:20:11;;;;;;;10.03;7.40;;;;;;;11.52;92.26;101138.03;5041947;28;20205;-79
2023/06/01 01:23:04;;;;;;;8.10;6.67;;;;;;;11.35;92.06;101143.44;5042222;28;20289;-79
2023/06/01 01:26:00;;;;;;;6.80;6.20;;;;;;;11.19;92.87;101134.91;5042698;28;20207;-79
2023/06/01 01:28:36;;;;;;;8.63;7.23;;;;;;;11.08;93.89;101116.75;5044259;28;20223;-78
2023/06/01 01:31:05;;;;;;;8.37;7.67;;;;;;;10.95;94.23;101099.44;5038626;28;20255;-78
2023/06/01 01:33:33;;;;;;;9.30;8.10;;;;;;;10.89;95.50;101074.25;5039956;28;20198;-79
2023/06/01 01:36:00;;;;;;;9.93;8.37;;;;;;;10.89;95.77;101061.19;5040493;28;20257;-78
2023/06/01 01:38:26;;;;;;;12.23;9.47;;;;;;;10.99;95.50;101050.66;5038957;28;20231;-78
2023/06/01 01:40:53;;;;;;;10.10;9.03;;;;;;;10.86;96.64;101037.72;5037970;28;20214;-78
2023/06/01 01:43:20;;;;;;;10.13;9.13;;;;;;;10.89;96.91;101022.00;5040153;28;20224;-79
2023/06/01 01:45:55;;;;;;;10.73;8.47;;;;;;;10.91;96.45;101009.78;5039040;28;20210;-78
2023/06/01 01:48:28;;;;;;;13.07;8.10;;;;;;;10.81;96.98;101013.41;5039194;28;20271;-79
2023/06/01 01:51:02;;;;;;;11.83;9.20;;;;;;;10.79;97.49;101003.84;5040532;28;20206;-79
2023/06/01 01:53:30;;;;;;;12.87;9.60;;;;;;;11.04;96.62;101012.25;5038207;28;20749;-79
2023/06/01 01:55:57;;;;;;;9.10;8.23;;;;;;;11.14;95.63;101032.19;5040423;28;20673;-78
2023/06/01 01:58:26;;;;;;;9.43;8.53;;;;;;;11.10;94.07;101057.50;5041963;28;20229;-78
2023/06/01 02:00:54;;;;;;;13.83;9.93;;;;;;;11.10;94.25;101054.88;5042043;28;20630;-79
2023/06/01 02:03:21;;;;;;;11.03;9.20;;;;;;;11.22;93.84;101069.56;5043342;28;20747;-78
2023/06/01 02:05:47;;;;;;;10.20;9.13;;;;;;;11.31;92.99;101079.03;5042603;28;20681;-79
2023/06/01 02:08:13;;;;;;;10.13;9.20;;;;;;;11.21;93.50;101086.09;5042101;28;20230;-79
2023/06/01 02:10:40;;;;;;;12.90;9.70;;;;;;;11.10;94.49;101069.69;5041950;28;20811;-79
2023/06/01 02:13:07;;;;;;;13.37;9.97;;;;;;;10.97;94.88;101053.28;5044569;28;20204;-78
2023/06/01 02:15:33;;;;;;;10.73;9.40;;;;;;;10.89;95.48;101044.66;5042526;28;20211;-79
2023/06/01 02:18:02;;;;;;;15.13;10.90;;;;;;;10.88;96.50;101025.53;5041187;28;20233;-78
2023/06/01 02:20:28;;;;;;;10.67;9.77;;;;;;;10.89;96.03;101011.56;5042959;28;20658;-79
2023/06/01 02:22:55;;;;;;;11.17;10.07;;;;;;;10.84;96.71;101002.94;5042880;28;20210;-78
2023/06/01 02:25:21;;;;;;;10.83;9.73;;;;;;;10.84;96.89;101002.03;5042765;28;20207;-79
2023/06/01 02:27:47;;;;;;;16.20;11.80;;;;;;;10.91;96.90;100996.75;5043617;28;20321;-80
2023/06/01 02:30:14;;;;;;;14.23;11.17;;;;;;;10.86;97.15;100989.84;5044914;28;20198;-79
2023/06/01 02:32:44;;;;;;;13.07;11.47;;;;;;;10.66;98.56;100974.38;5041898;28;20202;-77
2023/06/01 02:35:12;;;;;;;14.07;10.80;;;;;;;10.67;99.38;100945.66;5043720;28;20673;-78
2023/06/01 02:37:38;;;;;;;13.43;12.03;;;;;;;10.92;98.33;100958.41;5042650;28;20242;-79
2023/06/01 02:40:06;;;;;;;12.00;10.77;;;;;;;10.91;98.16;100972.38;5043744;28;20226;-79
2023/06/01 02:42:33;;;;;;;12.40;11.17;;;;;;;10.92;97.78;100974.09;5041309;28;20673;-78
2023/06/01 02:45:00;;;;;;;12.67;10.93;;;;;;;10.84;96.91;100986.38;5048268;28;20264;-78
2023/06/01 02:47:26;;;;;;;11.47;10.30;;;;;;;10.75;97.37;100994.31;5044260;28;20231;-79
2023/06/01 02:49:52;;;;;;;14.57;10.83;;;;;;;10.86;97.38;100993.34;5042508;28;20202;-79
2023/06/01 02:52:20;;;;;;;10.23;9.23;;;;;;;10.83;97.09;100993.34;5044896;28;20264;-79
2023/06/01 02:54:46;;;;;;;11.87;8.43;;;;;;;10.62;97.74;100989.22;5043275;28;20207;-78
2023/06/01 02:57:13;;;;;;;12.27;11.00;;;;;;;10.63;98.54;100969.22;5042069;28;20230;-79
2023/06/01 02:59:39;;;;;;;11.87;10.87;;;;;;;10.56;98.98;100975.38;5042583;28;20263;-79
2023/06/01 03:02:06;;;;;;;12.97;9.20;;;;;;;10.56;99.21;100951.88;5044634;28;20217;-79
2023/06/01 03:04:33;;;;;;;21.63;10.10;;;;;;;10.55;99.90;100945.78;5054219;28;20214;-79
2023/06/01 03:07:01;;;;;;;12.50;9.53;;;;;;;10.66;99.26;100949.16;5053180;28;20211;-78
2023/06/01 03:09:28;;;;;;;11.03;9.10;;;;;;;10.56;99.44;100951.88;5053213;28;20210;-79
2023/06/01 03:11:55;;;;;;;11.57;10.37;;;;;;;10.58;99.98;100939.66;5051373;28;20206;-79
2023/06/01 03:14:21;;;;;;;12.83;10.57;;;;;;;10.64;99.99;100931.75;5053870;28;20596;-79
2023/06/01 03:16:47;;;;;;;12.57;11.27;;;;;;;10.48;100.00;100938.91;5055230;28;20194;-80
2023/06/01 03:19:14;;;;;;;12.43;11.03;;;;;;;10.49;100.00;100918.00;5050211;28;20567;-78
2023/06/01 03:21:41;;;;;;;15.87;10.23;;;;;;;10.44;100.00;100904.13;5040303;28;20209;-79
2023/06/01 03:24:08;;;;;;;12.10;10.07;;;;;;;10.56;100.00;100905.75;5039379;28;20271;-78
2023/06/01 03:26:36;;;;;;;11.33;9.97;;;;;;;10.41;100.00;100906.78;5041216;28;20680;-79
2023/06/01 03:29:02;;;;;;;11.80;10.37;;;;;;;10.55;100.00;100914.47;5040464;28;20222;-78
2023/06/01 03:31:30;;;;;;;12.13;10.20;;;;;;;10.58;100.00;100911.81;5040449;28;20210;-79
2023/06/01 03:33:56;;;;;;;12.93;11.20;;;;;;;10.66;100.00;100916.94;5042168;28;20206;-78
2023/06/01 03:36:23;;;;;;;13.17;11.27;;;;;;;10.53;100.00;100931.91;5040527;28;20264;-79
2023/06/01 03:38:49;;;;;;;11.73;10.37;;;;;;;10.52;100.00;100918.00;5039142;28;20246;-77
2023/06/01 03:41:15;;;;;;;12.17;10.97;;;;;;;10.58;100.00;100924.88;5036443;28;20590;-77
2023/06/01 03:43:43;;;;;;;13.70;11.20;;;;;;;10.72;99.64;100933.44;5036065;28;20917;-77
2023/06/01 03:46:09;;;;;;;15.53;11.80;;;;;;;10.63;99.28;100949.19;5035728;28;20634;-77
2023/06/01 03:48:36;;;;;;;12.73;11.53;;;;;;;10.47;100.00;100931.97;5036772;28;20228;-78
2023/06/01 03:51:02;;;;;;;13.03;11.63;;;;;;;10.53;100.00;100931.91;5035822;28;20240;-77
2023/06/01 03:53:31;;;;;;;13.83;12.10;;;;;;;10.47;100.00;100931.97;5035864;28;20206;-77
2023/06/01 03:55:57;;;;;;;13.43;11.43;;;;;;;10.59;99.45;100931.81;5036107;28;20264;-77
2023/06/01 03:58:24;;;;;;;13.77;10.93;;;;;;;10.51;98.55;100950.19;5037222;28;20232;-77
2023/06/01 04:00:52;;;;;;;13.70;11.87;;;;;;;10.32;99.93;100940.81;5037839;28;20212;-77
2023/06/01 04:03:21;;;;;;;13.77;11.10;;;;;;;10.38;99.20;100951.19;5036046;28;20665;-77
2023/06/01 04:05:49;;;;;;;14.53;11.23;;;;;;;10.33;99.43;100953.84;5035620;28;20206;-77
2023/06/01 04:08:16;;;;;;;12.87;10.90;;;;;;;10.35;98.96;100956.44;5035252;28;20268;-77
2023/06/01 04:10:42;;;;;;;11.70;10.60;;;;;;;10.43;97.92;100974.63;5035438;28;20292;-78
2023/06/01 04:13:08;;;;;;;12.93;10.63;;;;;;;10.47;97.14;100987.63;5035877;28;20672;-76
2023/06/01 04:15:35;;;;;;;11.37;9.10;;;;;;;10.49;96.32;100993.69;5035306;28;20256;-77
2023/06/01 04:18:02;;;;;;;11.97;9.47;;;;;;;10.52;96.05;101016.28;5035463;28;20294;-76
2023/06/01 04:20:31;;;;;;;11.43;8.80;;;;;;;10.58;95.79;101021.44;5034216;28;20705;-77
2023/06/01 04:22:57;;;;;;;11.60;9.23;;;;;;;10.54;95.82;101022.34;5035100;28;20211;-77
2023/06/01 04:25:24;;;;;;;10.37;8.70;;;;;;;10.68;95.72;101025.72;5036210;28;20236;-77
2023/06/01 04:27:51;;;;;;;17.57;10.23;;;;;;;10.64;95.29;101031.84;5035910;28;20226;-78
2023/06/01 04:30:18;;;;;;;10.73;9.20;;;;;;;10.74;94.79;101043.06;5036833;28;20198;-78
2023/06/01 04:32:47;;;;;;;12.47;10.07;;;;;;;10.86;94.12;101061.25;5034769;28;20206;-78
2023/06/01 04:35:15;;;;;;;13.40;9.80;;;;;;;10.74;94.56;101061.34;5036235;28;20213;-78
2023/06/01 04:37:43;;;;;;;14.30;9.90;;;;;;;10.70;95.20;101064.84;5034515;28;20245;-78
2023/06/01 04:40:10;;;;;;;10.80;8.87;;;;;;;10.75;95.20;101055.25;5061019;22;20576;-82
2023/06/01 04:42:40;;;;;;;13.50;9.80;;;;;;;10.64;96.01;101057.09;5035579;28;20217;-80
2023/06/01 04:45:09;;;;;;;10.60;8.70;;;;;;;10.73;96.89;101029.13;5037783;28;20208;-80
2023/06/01 04:47:39;;;;;;;11.00;9.50;;;;;;;10.87;96.02;101030.75;5039005;28;20682;-80
2023/06/01 04:50:08;;;;;;;13.37;9.60;;;;;;;10.99;95.76;101033.22;5041237;28;20198;-80
2023/06/01 04:52:36;;;;;;;10.53;9.07;;;;;;;10.96;95.65;101035.88;5041044;28;20209;-82
2023/06/01 04:55:04;;;;;;;12.47;9.63;;;;;;;10.76;97.02;101028.22;5040748;28;20248;-82
2023/06/01 04:57:34;;;;;;;12.10;9.40;;;;;;;10.99;96.50;101020.16;5042020;28;20260;-81
2023/06/01 05:00:01;;;;;;;10.50;9.10;;;;;;;11.01;96.29;101020.16;5040931;28;20229;-81
2023/06/01 05:02:30;;;;;;;10.17;9.03;;;;;;;10.78;96.53;101023.00;5043019;28;20325;-83
2023/06/01 05:04:56;;;;;;;15.60;10.03;;;;;;;10.80;96.19;101013.41;5041188;28;20206;-81
2023/06/01 05:07:24;;;;;;;14.90;10.30;;;;;;;10.59;97.50;100989.25;5041000;28;20288;-81
2023/06/01 05:09:52;;;;;;;13.47;11.07;;;;;;;10.65;97.33;100989.19;5034132;28;20264;-79
2023/06/01 05:12:18;;;;;;;13.03;9.93;;;;;;;10.70;97.08;100992.63;5035834;28;20280;-81
2023/06/01 05:14:47;;;;;;;11.17;10.10;;;;;;;10.70;96.34;100997.84;5035930;28;20677;-81
2023/06/01 05:17:14;;;;;;;13.30;9.90;;;;;;;10.75;95.95;101004.78;5035928;28;20209;-81
2023/06/01 05:19:40;;;;;;;10.93;9.13;;;;;;;10.81;95.80;101018.63;5035756;28;20226;-80
2023/06/01 05:22:06;;;;;;;14.73;10.30;;;;;;;10.63;96.51;101009.22;5036285;28;20230;-81
2023/06/01 05:24:33;;;;;;;11.77;10.53;;;;;;;10.56;97.90;100991.88;5036249;28;20255;-81
2023/06/01 05:27:01;;;;;;;11.73;9.87;;;;;;;10.53;98.68;100964.06;5039539;28;20206;-82
2023/06/01 05:29:27;;;;;;;14.93;11.03;;;;;;;10.72;98.15;100961.25;5039283;28;20236;-80
2023/06/01 05:31:53;;;;;;;16.10;10.90;;;;;;;10.84;97.01;100979.44;5042691;28;20226;-81
2023/06/01 05:34:20;;;;;;;12.13;10.87;;;;;;;10.87;96.78;100983.75;5040330;28;20210;-82
2023/06/01 05:36:48;;;;;;;15.00;10.77;;;;;;;10.79;97.50;100983.81;5038782;28;20202;-80
2023/06/01 05:39:15;;;;;;;12.20;11.00;;;;;;;10.96;97.36;100975.81;5039070;28;20226;-81
2023/06/01 05:41:41;;;;;;;10.37;9.33;;;;;;;10.88;97.36;100978.50;5037986;28;20280;-80
2023/06/01 05:44:09;;;;;;;10.47;9.47;;;;;;;10.79;98.29;100956.84;5037108;28;20208;-82
2023/06/01 05:46:36;;;;;;;17.03;9.43;;;;;;;10.84;98.21;100955.03;5035590;28;20210;-80
2023/06/01 05:49:02;;;;;;;13.70;9.03;;;;;;;10.70;99.43;100947.34;5037431;28;20248;-79
2023/06/01 05:51:29;;;;;;;9.03;8.17;;;;;;;10.82;99.00;100939.41;5037206;28;20280;-81
2023/06/01 05:53:56;;;;;;;13.57;8.07;;;;;;;11.00;98.94;100933.09;5037121;28;20241;-82
2023/06/01 05:56:23;;;;;;;9.83;7.87;;;;;;;10.82;100.00;100913.28;5036785;28;20206;-82
2023/06/01 05:58:52;;;;;;;12.80;8.97;;;;;;;10.87;100.00;100908.00;5036186;28;20206;-79
2023/06/01 06:01:22;;;;;;;9.40;8.50;;;;;;;10.90;99.95;100910.56;5036571;28;20234;-81
2023/06/01 06:03:48;;;;;;;11.23;8.90;;;;;;;11.07;98.98;100931.25;5036702;28;20214;-80
2023/06/01 06:06:18;;;;;;;13.23;9.67;;;;;;;11.06;99.35;100932.13;5035687;28;20225;-82
2023/06/01 06:08:44;;;;;;;10.60;9.60;;;;;;;11.16;98.58;100931.16;5036556;28;20309;-82
2023/06/01 06:11:11;;;;;;;14.23;9.10;;;;;;;11.06;99.04;100943.47;5040978;28;20222;-81
2023/06/01 06:13:37;;;;;;;12.17;9.53;;;;;;;11.00;100.00;100926.97;5036780;28;20202;-82
2023/06/01 06:16:04;;;;;;;9.77;8.77;;;;;;;11.04;100.00;100918.22;5037118;28;20260;-84
2023/06/01 06:18:36;;;;;;;13.57;9.73;;;;;;;11.03;99.77;100927.81;5035408;28;20210;-81
2023/06/01 06:21:03;;;;;;;10.57;9.50;;;;;;;10.97;99.14;100933.13;5037176;28;20230;-83
2023/06/01 06:23:32;;;;;;;10.33;9.33;;;;;;;11.07;99.64;100924.28;5036381;28;20209;-83
2023/06/01 06:26:00;;;;;;;14.17;9.73;;;;;;;11.08;100.00;100917.28;5035274;28;20220;-82
2023/06/01 06:28:28;;;;;;;12.03;10.07;;;;;;;11.07;100.00;100900.75;5035279;28;20213;-81
2023/06/01 06:30:54;;;;;;;10.93;9.60;;;;;;;10.95;100.00;100885.25;5037569;28;20233;-82
2023/06/01 06:33:21;;;;;;;9.83;8.87;;;;;;;10.91;100.00;100889.66;5036852;28;20210;-83
2023/06/01 06:35:48;;;;;;;11.13;7.93;;;;;;;11.03;100.00;100870.34;5036432;28;20557;-81
2023/06/01 06:38:16;;;;;;;9.00;8.10;;;;;;;10.98;100.00;100866.06;5035922;28;20289;-80
2023/06/01 06:40:45;;;;;;;9.30;8.07;;;;;;;11.12;100.00;100882.44;5036160;28;20238;-82
2023/06/01 06:53:01;;;;;;;11.77;9.73;;;;;;;11.65;98.32;100960.94;5040526;28;20208;-81
2023/06/01 06:55:28;;;;;;;14.57;12.37;;;;;;;11.43;98.92;100963.84;5039436;28;20768;-82
2023/06/01 06:58:17;;;;;;;;;;;;;;;;;;;;;
2023/06/01 07:04:06;;;;;;;21.53;16.07;;;;;;;11.15;100.00;100912.88;4993805;28;20362;-84
2023/06/01 07:10:12;;;;;;;27.23;18.70;;;;;;;11.01;100.00;100908.69;5004169;23;20213;-75
2023/06/01 07:12:39;;;;;;;30.40;19.60;;;;;;;11.01;100.00;100885.16;5033196;28;20242;-75
2023/06/01 07:15:07;;;;;;;28.77;18.77;;;;;;;11.28;100.00;100885.69;5034296;28;20220;-74
2023/06/01 07:17:33;;;;;;;31.40;20.43;;;;;;;11.18;100.00;100881.44;5034484;28;20206;-75
2023/06/01 07:20:04;;;;;;;24.67;18.20;;;;;;;11.21;100.00;100884.03;5034254;28;20696;-74
2023/06/01 07:22:30;;;;;;;17.33;15.53;;;;;;;11.41;100.00;100912.50;5034549;28;20207;-75
2023/06/01 07:24:57;;;;;;;15.57;13.53;;;;;;;11.48;99.47;100935.91;5034413;28;20210;-75
2023/06/01 07:27:26;;;;;;;16.97;12.57;;;;;;;11.57;98.28;100957.56;5034444;28;20206;-75
2023/06/01 07:29:54;;;;;;;18.13;12.93;;;;;;;11.61;97.75;100980.16;5034268;28;20235;-75
2023/06/01 07:32:21;;;;;;;20.07;13.87;;;;;;;11.78;97.05;100993.88;5033964;28;20289;-75
2023/06/01 07:34:47;;;;;;;18.90;15.17;;;;;;;11.78;97.74;100985.16;5033881;28;20203;-75
2023/06/01 07:37:14;;;;;;;17.00;14.17;;;;;;;11.77;98.15;100994.75;5033752;28;20660;-75
2023/06/01 07:39:40;;;;;;;15.93;12.33;;;;;;;11.88;97.96;100984.97;5033623;28;20237;-74
2023/06/01 07:42:07;;;;;;;16.33;10.67;;;;;;;11.78;97.04;101001.72;5034352;28;20249;-74
2023/06/01 07:44:34;;;;;;;13.80;11.03;;;;;;;11.49;99.47;100984.69;5037433;28;20244;-77
2023/06/01 07:47:01;;;;;;;15.93;12.47;;;;;;;11.30;99.52;100978.00;5037168;28;20206;-78
2023/06/01 07:49:28;;;;;;;14.17;11.80;;;;;;;11.48;98.70;100972.50;5038170;28;20231;-78
2023/06/01 07:51:56;;;;;;;16.67;12.07;;;;;;;11.42;99.44;100982.19;5040557;28;20663;-79
2023/06/01 07:54:22;;;;;;;17.27;12.63;;;;;;;11.35;99.56;100973.56;5037876;28;20235;-76
2023/06/01 07:56:49;;;;;;;21.93;14.50;;;;;;;11.42;99.66;100966.50;5035634;28;20264;-80
2023/06/01 07:59:16;;;;;;;17.67;13.70;;;;;;;11.57;98.53;100974.13;5036603;28;20227;-78
2023/06/01 08:01:44;;;;;;;13.90;11.37;;;;;;;11.67;97.76;100986.19;5041744;28;20289;-80
2023/06/01 08:04:11;;;;;;;17.00;12.00;;;;;;;11.86;95.24;101023.38;5036380;28;20228;-75
2023/06/01 08:06:38;;;;;;;14.13;10.93;;;;;;;11.85;94.93;101054.78;5036645;28;20302;-76
2023/06/01 08:09:05;;;;;;;8.90;7.90;;;;;;;11.72;94.36;101065.44;5032923;28;20862;-75
2023/06/01 08:11:32;;;;;;;9.43;7.37;;;;;;;11.81;94.64;101064.44;5036781;28;20244;-77
2023/06/01 08:13:59;;;;;;;10.17;7.73;;;;;;;12.04;94.37;101071.13;5034251;28;20205;-76
2023/06/01 08:16:26;;;;;;;11.03;7.83;;;;;;;12.13;94.38;101071.00;5035346;28;20209;-78
2023/06/01 08:18:56;;;;;;;9.83;7.83;;;;;;;12.10;93.93;101071.03;5034441;28;20222;-78
2023/06/01 08:21:23;;;;;;;8.20;7.37;;;;;;;12.19;92.44;101099.69;5034573;28;20260;-76
2023/06/01 08:23:51;;;;;;;12.73;7.40;;;;;;;12.24;90.95;101128.41;5041125;28;20252;-76
2023/06/01 08:26:18;;;;;;;7.57;6.70;;;;;;;12.38;90.79;101151.78;5038445;28;20227;-77
2023/06/01 08:28:51;;;;;;;8.50;6.20;;;;;;;12.31;91.25;101148.38;5040258;28;20225;-76
2023/06/01 08:31:18;;;;;;;6.20;5.60;;;;;;;12.38;90.95;101146.53;5033310;28;20202;-77
2023/06/01 08:33:44;;;;;;;7.93;5.83;;;;;;;12.21;90.67;101146.75;5033090;28;20611;-77
2023/06/01 08:36:12;;;;;;;7.80;5.80;;;;;;;12.25;91.51;101149.34;5032925;28;20206;-74
2023/06/01 08:38:38;;;;;;;6.47;5.67;;;;;;;12.24;91.93;101142.34;5035571;28;20235;-76
2023/06/01 08:41:15;;;;;;;6.30;5.73;;;;;;;12.36;91.53;101138.69;5034143;28;20222;-76
2023/06/01 08:43:41;;;;;;;6.77;6.17;;;;;;;12.34;91.19;101140.47;5033866;28;20210;-76
2023/06/01 08:46:08;;;;;;;9.25;7.05;;;;;;;12.51;89.98;101151.56;5031929;28;20437;-76
2023/06/01 08:48:35;;;;;;;6.33;5.50;;;;;;;12.68;89.67;101168.75;5033317;28;20251;-76
2023/06/01 08:51:02;;;;;;;7.77;6.60;;;;;;;12.62;90.66;101171.47;5032792;28;20702;-75
2023/06/01 08:53:32;;;;;;;7.57;6.30;;;;;;;12.63;91.08;101165.38;5033629;28;20772;-77
2023/06/01 08:55:58;;;;;;;13.87;7.33;;;;;;;12.46;92.79;101131.56;5034401;28;20210;-79
2023/06/01 08:58:26;;;;;;;12.47;8.17;;;;;;;12.34;94.68;101076.78;5034233;28;20301;-79
2023/06/01 09:00:54;;;;;;;10.67;8.40;;;;;;;11.99;97.73;101025.84;5033357;28;20301;-75
2023/06/01 09:03:21;;;;;;;15.23;10.35;;;;;;;11.82;98.94;100972.00;5032872;28;20445;-76
2023/06/01 09:05:47;;;;;;;10.03;9.13;;;;;;;11.89;99.91;100942.28;5032435;28;20207;-75
2023/06/01 09:08:14;;;;;;;10.23;7.90;;;;;;;11.77;100.00;100916.28;5043623;28;20227;-75
2023/06/01 09:10:42;;;;;;;9.97;7.47;;;;;;;11.74;100.00;100890.19;5032327;28;20220;-75
2023/06/01 09:13:08;;;;;;;10.00;7.40;;;;;;;11.81;100.00;100885.72;5032641;28;20210;-75
2023/06/01 09:15:35;;;;;;;9.27;7.10;;;;;;;11.79;100.00;100887.47;5032743;28;20675;-77
2023/06/01 09:18:07;;;;;;;7.23;6.53;;;;;;;12.01;99.76;100895.84;5032315;28;20569;-76
2023/06/01 09:20:33;;;;;;;7.97;7.17;;;;;;;12.21;98.10;100922.56;5032471;28;20233;-76
2023/06/01 09:23:00;;;;;;;8.17;6.80;;;;;;;12.11;97.62;100939.31;5032409;28;20214;-75
2023/06/01 09:25:27;;;;;;;7.77;6.60;;;;;;;12.36;95.69;100960.66;5032164;28;20241;-75
2023/06/01 09:27:57;;;;;;;7.17;6.47;;;;;;;12.40;94.85;100978.03;5031988;28;20217;-75
2023/06/01 09:30:25;;;;;;;6.97;6.37;;;;;;;12.38;93.01;101026.09;5031995;28;20665;-75
2023/06/01 09:33:07;;;;;;;6.13;5.63;;;;;;;12.50;92.09;101046.81;5032417;28;20218;-75
2023/06/01 09:35:40;;;;;;;11.57;6.50;;;;;;;12.62;92.39;101061.47;5048793;28;20216;-75
2023/06/01 09:38:07;;;;;;;6.50;5.90;;;;;;;12.73;91.74;101064.78;5051457;28;20252;-75
2023/06/01 09:40:34;;;;;;;8.07;5.87;;;;;;;12.61;92.34;101071.09;5051833;28;20237;-76
2023/06/01 09:43:02;;;;;;;7.97;5.93;;;;;;;12.74;92.93;101069.09;5052008;28;20243;-75
2023/06/01 09:45:31;;;;;;;11.43;6.80;;;;;;;12.71;92.28;101077.88;5051886;28;20209;-75
2023/06/01 09:48:16;;;;;;;7.60;6.80;;;;;;;12.63;92.28;101079.78;5051629;28;20210;-75
2023/06/01 09:50:43;;;;;;;7.13;6.50;;;;;;;12.56;92.86;101078.16;5051745;28;20203;-75
2023/06/01 09:53:10;;;;;;;7.27;6.67;;;;;;;12.59;92.04;101072.00;5051779;28;20671;-75
2023/06/01 09:55:36;;;;;;;6.50;5.43;;;;;;;12.66;90.98;101082.34;5051822;28;20207;-75
2023/06/01 09:58:20;;;;;;;6.23;5.63;;;;;;;12.67;91.99;101081.47;5051534;28;20255;-75
2023/06/01 10:00:47;;;;;;;6.77;6.17;;;;;;;12.64;91.69;101072.78;5051663;28;20312;-76
2023/06/01 10:03:15;;;;;;;9.50;7.33;;;;;;;12.64;92.69;101063.16;5051704;28;20251;-76
2023/06/01 10:05:42;;;;;;;7.47;6.77;;;;;;;12.64;93.37;101051.81;5051660;28;20674;-75
2023/06/01 10:08:11;;;;;;;10.33;9.43;;;;;;;12.62;94.88;101016.94;5051477;28;20765;-76
2023/06/01 10:10:38;;;;;;;8.03;7.27;;;;;;;12.69;93.17;101027.28;5051561;28;20215;-76
2023/06/01 10:13:05;;;;;;;7.57;6.83;;;;;;;12.68;92.38;101033.41;5051575;28;20206;-75
2023/06/01 10:15:33;;;;;;;10.23;7.43;;;;;;;12.51;93.38;101038.94;5051148;28;20219;-75
2023/06/01 10:18:00;;;;;;;8.10;7.30;;;;;;;12.52;93.77;101024.94;5052054;28;20230;-75
2023/06/01 10:20:27;;;;;;;7.27;6.50;;;;;;;12.63;91.85;101039.63;5055719;28;20210;-75
2023/06/01 10:22:54;;;;;;;6.17;5.57;;;;;;;12.63;91.39;101058.81;5055824;28;20209;-75
2023/06/01 10:25:24;;;;;;;5.43;4.93;;;;;;;12.46;91.71;101059.09;5055567;28;20222;-75
2023/06/01 10:27:58;;;;;;;5.67;4.87;;;;;;;12.65;91.74;101056.19;5055533;28;20209;-74
2023/06/01 10:30:25;;;;;;;5.70;5.20;;;;;;;12.84;90.84;101064.56;5055544;28;20209;-75
2023/06/01 10:32:54;;;;;;;6.20;5.70;;;;;;;12.94;90.67;101081.84;5055737;28;20213;-74
2023/06/01 10:35:52;;;;;;;7.23;6.43;;;;;;;12.84;91.53;101064.56;5055446;28;20205;-75
2023/06/01 10:38:25;;;;;;;6.87;6.37;;;;;;;12.81;91.33;101060.25;5054066;28;20637;-74
2023/06/01 10:40:52;;;;;;;7.97;6.63;;;;;;;12.75;92.39;101038.56;5069698;22;20214;-78
2023/06/01 10:43:40;;;;;;;6.93;6.20;;;;;;;12.96;92.00;101039.91;5074530;28;20217;-77
2023/06/01 10:46:34;;;;;;;5.33;4.90;;;;;;;12.88;91.49;101058.38;5074680;28;20207;-77
2023/06/01 10:49:03;;;;;;;5.97;4.20;;;;;;;13.05;90.43;101060.69;5074864;28;20720;-77
2023/06/01 10:51:30;;;;;;;4.30;3.90;;;;;;;12.99;90.90;101069.53;5083391;28;20228;-77
2023/06/01 10:54:38;;;;;;;4.47;4.17;;;;;;;13.04;90.20;101074.69;5095171;28;20202;-76
2023/06/01 10:57:24;;;;;;;4.20;3.90;;;;;;;12.94;90.38;101083.59;5095087;28;20206;-76
2023/06/01 11:00:12;;;;;;;4.57;4.27;;;;;;;12.80;91.17;101057.66;5095063;28;20269;-77
2023/06/01 11:02:54;;;;;;;4.00;3.70;;;;;;;13.16;90.36;101055.22;5094985;28;20240;-77
2023/06/01 11:05:42;;;;;;;3.97;3.77;;;;;;;13.29;89.06;101086.44;5095100;28;20215;-77
2023/06/01 11:08:30;;;;;;;4.50;4.10;;;;;;;13.36;87.94;101097.69;5094185;28;20238;-77
2023/06/01 11:10:59;;;;;;;3.90;3.70;;;;;;;13.43;87.67;101116.78;5093961;28;20226;-76
2023/06/01 11:13:27;;;;;;;4.30;4.00;;;;;;;13.42;88.19;101122.91;5094631;28;20308;-77
2023/06/01 11:16:28;;;;;;;3.60;3.30;;;;;;;13.49;87.22;101128.00;5094450;28;20231;-76
2023/06/01 11:18:57;;;;;;;4.60;4.30;;;;;;;13.58;86.61;101137.47;5094507;28;20619;-77
2023/06/01 11:21:26;;;;;;;5.57;4.30;;;;;;;13.63;86.88;101151.34;5094958;28;20244;-77
2023/06/01 11:23:54;;;;;;;6.20;5.03;;;;;;;13.67;87.42;101146.91;5095066;28;20209;-76
2023/06/01 11:26:24;;;;;;;6.00;4.67;;;;;;;13.70;88.03;101120.63;5094648;28;20285;-77
2023/06/01 11:28:51;;;;;;;6.47;5.00;;;;;;;13.60;88.03;101119.94;5094505;28;20300;-77
2023/06/01 11:31:20;;;;;;;5.43;4.97;;;;;;;13.85;86.90;101116.78;5095392;28;20222;-77
2023/06/01 11:33:52;;;;;;;5.20;4.77;;;;;;;13.45;86.77;101135.97;5095442;28;20392;-76
2023/06/01 11:36:20;;;;;;;5.50;4.53;;;;;;;13.74;87.10;101126.66;5094863;28;20206;-77
2023/06/01 11:38:47;;;;;;;5.83;4.63;;;;;;;14.03;87.36;101112.91;5095202;28;20249;-77
2023/06/01 11:41:14;;;;;;;4.50;4.17;;;;;;;14.10;85.11;101153.88;5094761;28;20233;-77